KF0JJO Weather Reports


time (UTC)temp
C
wind
direction
speed
KPH
gust
KPH
rain 1hr
cm
rain 24hr
cm
rain mn
cm
humidity
%
barometer
mb
20260504081945 13 28 0.0 1.6 0.00 0.00 0.00 41 1029.1
20260504081442 13 31 0.0 0.0 0.00 0.00 0.00 40 1029.3
20260504080937 13 27 0.0 1.6 0.00 0.00 0.00 40 1029.4
20260504080434 13 27 0.0 1.6 0.00 0.00 0.00 40 1029.7
20260504070402 12 39 1.6 1.6 0.00 0.00 0.00 42 1030.4
20260504050749 10 30 0.0 0.0 0.00 0.00 0.00 56 1032.9
20260504050247 10 30 0.0 0.0 0.00 0.00 0.00 54 1032.9
20260504045745 10 30 0.0 0.0 0.00 0.00 0.00 54 1033.3
20260504045244 10 30 0.0 0.0 0.00 0.00 0.00 54 1033.2
20260504044743 11 30 0.0 0.0 0.00 0.00 0.00 53 1033.0
20260504044240 11 30 0.0 0.0 0.00 0.00 0.00 53 1033.3
20260504043737 11 30 0.0 0.0 0.00 0.00 0.00 52 1033.4
20260504043234 11 30 0.0 0.0 0.00 0.00 0.00 52 1033.7
20260504042732 11 30 0.0 0.0 0.00 0.00 0.00 51 1033.7
20260504042228 11 30 0.0 0.0 0.00 0.00 0.00 50 1033.6
20260504041724 11 30 0.0 0.0 0.00 0.00 0.00 49 1033.6
20260504041220 11 30 0.0 0.0 0.00 0.00 0.00 49 1034.0
20260504040716 11 30 0.0 0.0 0.00 0.00 0.00 47 1033.9
20260504040214 11 30 0.0 0.0 0.00 0.00 0.00 47 1034.1
20260504035710 12 30 0.0 0.0 0.00 0.00 0.00 47 1034.3
20260504035208 12 30 0.0 0.0 0.00 0.00 0.00 46 1034.4
20260504034705 12 30 0.0 0.0 0.00 0.00 0.00 46 1034.4
20260504034201 12 30 0.0 0.0 0.00 0.00 0.00 45 1034.5
20260504033659 12 30 0.0 0.0 0.00 0.00 0.00 44 1034.8
20260504033156 12 30 0.0 0.0 0.00 0.00 0.00 42 1034.9
20260504032653 13 30 0.0 0.0 0.00 0.00 0.00 41 1034.7
20260504032150 13 30 0.0 0.0 0.00 0.00 0.00 41 1034.7
20260504031647 13 30 0.0 0.0 0.00 0.00 0.00 41 1034.9
20260504031143 13 30 0.0 0.0 0.00 0.00 0.00 40 1034.9
20260504030640 13 30 0.0 0.0 0.00 0.00 0.00 39 1035.2
20260504030137 14 30 0.0 0.0 0.00 0.00 0.00 39 1035.1
20260504025634 14 30 0.0 0.0 0.00 0.00 0.00 37 1035.0
20260504025131 15 30 0.0 0.0 0.00 0.00 0.00 36 1035.2
20260504024628 15 30 0.0 0.0 0.00 0.00 0.00 36 1034.9
20260504024124 15 30 0.0 0.0 0.00 0.00 0.00 35 1035.0
20260504023621 15 30 0.0 0.0 0.00 0.00 0.00 35 1035.1
20260504023117 15 30 0.0 0.0 0.00 0.00 0.00 34 1035.1
20260504022614 16 30 0.0 0.0 0.00 0.00 0.00 33 1035.1
20260504022109 16 31 0.0 0.0 0.00 0.00 0.00 33 1035.1
20260504021608 16 30 0.0 0.0 0.00 0.00 0.00 33 1035.1
20260504021104 16 27 0.0 3.2 0.00 0.00 0.00 31 1035.2
20260504020601 16 30 0.0 0.0 0.00 0.00 0.00 32 1035.3
20260504020057 16 30 0.0 0.0 0.00 0.00 0.00 30 1035.1
20260504015554 16 29 0.0 0.0 0.00 0.00 0.00 30 1035.1
20260504015050 16 31 0.0 0.0 0.00 0.00 0.00 29 1035.3
20260504014546 17 30 0.0 0.0 0.00 0.00 0.00 29 1035.3
20260504014044 17 32 0.0 0.0 0.00 0.00 0.00 29 1035.3
20260504013541 17 32 0.0 0.0 0.00 0.00 0.00 28 1035.2
20260504013038 17 33 0.0 0.0 0.00 0.00 0.00 27 1035.2
20260504012535 17 31 0.0 0.0 0.00 0.00 0.00 27 1035.3
20260504012033 18 30 0.0 0.0 0.00 0.00 0.00 27 1035.2
20260504011530 18 32 0.0 0.0 0.00 0.00 0.00 26 1035.4
20260504011026 18 36 1.6 1.6 0.00 0.00 0.00 26 1035.3
20260504010521 18 32 0.0 0.0 0.00 0.00 0.00 25 1035.3
20260504010017 19 34 0.0 1.6 0.00 0.00 0.00 25 1035.4
20260504005515 19 32 0.0 1.6 0.00 0.00 0.00 25 1035.4
20260504005012 19 32 0.0 1.6 0.00 0.00 0.00 23 1035.7
20260504004510 20 29 0.0 1.6 0.00 0.00 0.00 24 1035.3
20260504004007 20 32 0.0 1.6 0.00 0.00 0.00 23 1035.4
20260504003502 20 31 0.0 0.0 0.00 0.00 0.00 23 1035.5
20260504003000 20 32 0.0 1.6 0.00 0.00 0.00 23 1035.4
20260504002457 20 36 0.0 3.2 0.00 0.00 0.00 24 1035.3
20260504001954 20 34 0.0 0.0 0.00 0.00 0.00 24 1035.4
20260504001451 20 34 0.0 1.6 0.00 0.00 0.00 23 1035.5
20260504000947 20 34 0.0 0.0 0.00 0.00 0.00 23 1035.4
20260504000445 20 36 0.0 0.0 0.00 0.00 0.00 23 1035.5
20260503235942 21 34 0.0 3.2 0.00 0.00 0.00 22 1035.3
20260503235440 21 28 0.0 1.6 0.00 0.00 0.00 22 1035.7
20260503234937 21 37 0.0 1.6 0.00 0.00 0.00 23 1035.6
20260503234434 21 31 0.0 1.6 0.00 0.00 0.00 23 1035.6
20260503233932 21 34 0.0 1.6 0.00 0.00 0.00 21 1035.7
20260503233428 21 29 0.0 1.6 0.00 0.00 0.00 23 1035.4
20260503232925 21 32 0.0 1.6 0.00 0.00 0.00 23 1035.7
20260503232422 21 43 1.6 4.8 0.00 0.00 0.00 21 1035.6
20260503231920 21 43 1.6 3.2 0.00 0.00 0.00 21 1035.8
20260503231417 21 32 0.0 0.0 0.00 0.00 0.00 24 1036.0
20260503230913 21 33 0.0 1.6 0.00 0.00 0.00 22 1036.0
20260503230410 22 32 1.6 3.2 0.00 0.00 0.00 21 1035.9
20260503225908 22 35 3.2 4.8 0.00 0.00 0.00 19 1036.0
20260503225403 22 36 1.6 1.6 0.00 0.00 0.00 21 1036.0
20260503224900 22 33 0.0 1.6 0.00 0.00 0.00 19 1036.0
20260503224357 22 30 0.0 1.6 0.00 0.00 0.00 21 1036.0
20260503223855 22 33 1.6 3.2 0.00 0.00 0.00 19 1036.3
20260503223353 22 18 1.6 4.8 0.00 0.00 0.00 20 1036.2
20260503222847 22 28 0.0 1.6 0.00 0.00 0.00 19 1036.2
20260503222347 22 31 0.0 1.6 0.00 0.00 0.00 19 1036.0
20260503221844 22 32 0.0 1.6 0.00 0.00 0.00 20 1036.2
20260503221343 22 29 0.0 3.2 0.00 0.00 0.00 21 1036.0
20260503220838 22 32 1.6 1.6 0.00 0.00 0.00 18 1036.2
20260503220335 23 32 1.6 3.2 0.00 0.00 0.00 19 1036.1
20260503215832 23 31 0.0 1.6 0.00 0.00 0.00 22 1036.3
20260503215329 23 37 0.0 1.6 0.00 0.00 0.00 20 1036.3
20260503214827 23 36 1.6 3.2 0.00 0.00 0.00 20 1036.3
20260503214324 23 30 1.6 3.2 0.00 0.00 0.00 21 1036.4
20260503213821 23 29 0.0 0.0 0.00 0.00 0.00 22 1036.4
20260503213319 23 26 0.0 1.6 0.00 0.00 0.00 19 1036.5
20260503212816 23 19 1.6 3.2 0.00 0.00 0.00 20 1036.5
20260503212314 23 23 3.2 4.8 0.00 0.00 0.00 18 1036.3
20260503211811 23 29 3.2 3.2 0.00 0.00 0.00 18 1036.3
20260503211308 23 27 0.0 3.2 0.00 0.00 0.00 20 1036.6
20260503210807 23 31 0.0 1.6 0.00 0.00 0.00 20 1036.6
20260503210305 22 333 1.6 4.8 0.00 0.00 0.00 17 1036.6
20260503205800 23 27 3.2 4.8 0.00 0.00 0.00 18 1036.6
20260503205257 23 25 1.6 1.6 0.00 0.00 0.00 19 1036.7
20260503204753 23 27 0.0 6.4 0.00 0.00 0.00 21 1036.6
20260503204251 23 27 0.0 1.6 0.00 0.00 0.00 22 1036.7
20260503203748 23 30 0.0 3.2 0.00 0.00 0.00 21 1036.8
20260503203245 23 30 0.0 0.0 0.00 0.00 0.00 23 1036.9
20260503202742 23 29 0.0 3.2 0.00 0.00 0.00 21 1037.0
20260503202240 23 25 1.6 3.2 0.00 0.00 0.00 22 1036.9
20260503201738 23 25 0.0 3.2 0.00 0.00 0.00 21 1036.8
20260503201236 23 41 1.6 3.2 0.00 0.00 0.00 23 1037.1
20260503200732 23 23 1.6 4.8 0.00 0.00 0.00 22 1037.0
20260503200228 23 28 1.6 3.2 0.00 0.00 0.00 22 1037.1
20260503195725 22 36 1.6 3.2 0.00 0.00 0.00 22 1037.1
20260503195222 22 27 0.0 3.2 0.00 0.00 0.00 21 1037.3
20260503194719 22 40 0.0 3.2 0.00 0.00 0.00 22 1037.3
20260503194215 22 17 1.6 3.2 0.00 0.00 0.00 22 1037.5
20260503193711 22 28 0.0 3.2 0.00 0.00 0.00 21 1037.6
20260503193208 22 31 1.6 3.2 0.00 0.00 0.00 21 1037.5
20260503192703 22 30 0.0 3.2 0.00 0.00 0.00 21 1037.5
20260503192159 22 45 3.2 6.4 0.00 0.00 0.00 21 1037.5
20260503191655 22 34 1.6 4.8 0.00 0.00 0.00 24 1037.3
20260503191153 22 33 0.0 3.2 0.00 0.00 0.00 21 1037.6
20260503190649 22 28 0.0 1.6 0.00 0.00 0.00 22 1037.6
20260503190146 22 24 1.6 3.2 0.00 0.00 0.00 22 1037.5
20260503185643 22 33 3.2 4.8 0.00 0.00 0.00 22 1037.4
20260503185138 22 15 6.4 11.3 0.00 0.00 0.00 20 1037.6
20260503184633 21 29 1.6 4.8 0.00 0.00 0.00 23 1037.7
20260503184130 21 34 1.6 4.8 0.00 0.00 0.00 25 1037.7
20260503183627 21 34 0.0 3.2 0.00 0.00 0.00 25 1037.8
20260503183124 22 29 0.0 4.8 0.00 0.00 0.00 23 1037.9
20260503182622 22 42 1.6 3.2 0.00 0.00 0.00 25 1037.8
20260503182120 21 40 1.6 3.2 0.00 0.00 0.00 28 1037.8
20260503181617 21 31 0.0 1.6 0.00 0.00 0.00 28 1038.0
20260503181114 21 34 1.6 1.6 0.00 0.00 0.00 29 1037.6
20260503180611 21 35 1.6 4.8 0.00 0.00 0.00 29 1037.9
20260503180109 21 29 1.6 4.8 0.00 0.00 0.00 29 1037.9
20260503175605 21 34 3.2 3.2 0.00 0.00 0.00 27 1037.7
20260503175102 21 28 0.0 4.8 0.00 0.00 0.00 29 1037.9
20260503174559 21 56 1.6 3.2 0.00 0.00 0.00 30 1038.0
20260503174056 21 23 3.2 11.3 0.00 0.00 0.00 30 1037.8
20260503173550 20 53 1.6 3.2 0.00 0.00 0.00 32 1037.8
20260503173047 20 31 1.6 4.8 0.00 0.00 0.00 32 1037.8
20260503172545 20 30 1.6 1.6 0.00 0.00 0.00 33 1038.0
20260503172042 20 30 0.0 1.6 0.00 0.00 0.00 33 1038.1
20260503171538 20 24 3.2 6.4 0.00 0.00 0.00 34 1038.0
20260503171036 20 34 0.0 9.7 0.00 0.00 0.00 33 1037.9
20260503170532 20 34 0.0 6.4 0.00 0.00 0.00 35 1038.2
20260503150924 17 35 3.2 4.8 0.00 0.00 0.00 39 1037.9
20260503150421 17 39 1.6 4.8 0.00 0.00 0.00 39 1037.9
20260503131314 13 53 1.6 4.8 0.00 0.00 0.00 45 1037.0
20260503130812 13 29 0.0 1.6 0.00 0.00 0.00 46 1036.9
20260503130309 13 31 0.0 0.0 0.00 0.00 0.00 49 1036.9
20260503110702 10 27 0.0 0.0 0.00 0.00 0.00 54 1035.9
20260503110200 10 29 0.0 0.0 0.00 0.00 0.00 52 1035.6
20260503100126 12 29 0.0 0.0 0.00 0.00 0.00 44 1036.1